sensor_id;sensor_type;location;lat;lon;timestamp;P1;durP1;ratioP1;P2;durP2;ratioP2
7829;SDS011;3960;51.86894000;5.39848000;2023-04-25T00:02:07;11.30;;;3.75;;
7829;SDS011;3960;51.86894000;5.39848000;2023-04-25T00:04:33;19.30;;;4.65;;
7829;SDS011;3960;51.86894000;5.39848000;2023-04-25T00:06:59;14.13;;;4.25;;
7829;SDS011;3960;51.86894000;5.39848000;2023-04-25T00:09:27;13.10;;;4.05;;
7829;SDS011;3960;51.86894000;5.39848000;2023-04-25T00:11:56;13.30;;;4.03;;
7829;SDS011;3960;51.86894000;5.39848000;2023-04-25T00:14:21;12.93;;;4.32;;
7829;SDS011;3960;51.86894000;5.39848000;2023-04-25T00:16:47;23.23;;;5.15;;
7829;SDS011;3960;51.86894000;5.39848000;2023-04-25T00:19:13;20.38;;;5.13;;
7829;SDS011;3960;51.86894000;5.39848000;2023-04-25T00:21:41;15.85;;;4.80;;
7829;SDS011;3960;51.86894000;5.39848000;2023-04-25T00:24:09;12.95;;;4.05;;
7829;SDS011;3960;51.86894000;5.39848000;2023-04-25T00:26:35;17.70;;;4.75;;
7829;SDS011;3960;51.86894000;5.39848000;2023-04-25T00:29:01;15.15;;;4.70;;
7829;SDS011;3960;51.86894000;5.39848000;2023-04-25T00:31:26;15.18;;;4.30;;
7829;SDS011;3960;51.86894000;5.39848000;2023-04-25T00:33:52;14.57;;;4.38;;
7829;SDS011;3960;51.86894000;5.39848000;2023-04-25T00:36:18;15.70;;;4.70;;
7829;SDS011;3960;51.86894000;5.39848000;2023-04-25T00:38:44;15.27;;;4.35;;
7829;SDS011;3960;51.86894000;5.39848000;2023-04-25T00:41:09;12.00;;;4.25;;
7829;SDS011;3960;51.86894000;5.39848000;2023-04-25T00:43:36;14.95;;;4.35;;
7829;SDS011;3960;51.86894000;5.39848000;2023-04-25T00:46:02;14.70;;;4.85;;
7829;SDS011;3960;51.86894000;5.39848000;2023-04-25T00:48:27;15.85;;;4.20;;
7829;SDS011;3960;51.86894000;5.39848000;2023-04-25T00:50:57;16.33;;;5.03;;
7829;SDS011;3960;51.86894000;5.39848000;2023-04-25T00:53:24;12.27;;;4.23;;
7829;SDS011;3960;51.86894000;5.39848000;2023-04-25T00:55:51;18.92;;;4.72;;
7829;SDS011;3960;51.86894000;5.39848000;2023-04-25T00:58:17;17.23;;;4.05;;
7829;SDS011;3960;51.86894000;5.39848000;2023-04-25T01:00:46;13.10;;;4.57;;
7829;SDS011;3960;51.86894000;5.39848000;2023-04-25T01:03:12;11.00;;;4.80;;
7829;SDS011;3960;51.86894000;5.39848000;2023-04-25T01:05:46;18.77;;;4.68;;
7829;SDS011;3960;51.86894000;5.39848000;2023-04-25T01:08:12;17.98;;;4.75;;
7829;SDS011;3960;51.86894000;5.39848000;2023-04-25T01:10:38;15.18;;;4.55;;
7829;SDS011;3960;51.86894000;5.39848000;2023-04-25T01:13:04;23.08;;;5.07;;
7829;SDS011;3960;51.86894000;5.39848000;2023-04-25T01:15:33;15.20;;;5.55;;
7829;SDS011;3960;51.86894000;5.39848000;2023-04-25T01:18:00;14.35;;;5.20;;
7829;SDS011;3960;51.86894000;5.39848000;2023-04-25T01:20:27;12.48;;;4.38;;
7829;SDS011;3960;51.86894000;5.39848000;2023-04-25T01:22:54;12.02;;;4.50;;
7829;SDS011;3960;51.86894000;5.39848000;2023-04-25T01:25:22;17.45;;;6.68;;
7829;SDS011;3960;51.86894000;5.39848000;2023-04-25T01:27:55;22.40;;;4.68;;
7829;SDS011;3960;51.86894000;5.39848000;2023-04-25T01:30:25;18.75;;;4.97;;
7829;SDS011;3960;51.86894000;5.39848000;2023-04-25T01:32:52;15.95;;;5.38;;
7829;SDS011;3960;51.86894000;5.39848000;2023-04-25T01:35:22;19.58;;;5.05;;
7829;SDS011;3960;51.86894000;5.39848000;2023-04-25T01:37:50;18.75;;;5.20;;
7829;SDS011;3960;51.86894000;5.39848000;2023-04-25T01:40:17;20.63;;;5.25;;
7829;SDS011;3960;51.86894000;5.39848000;2023-04-25T01:42:43;18.75;;;5.78;;
7829;SDS011;3960;51.86894000;5.39848000;2023-04-25T01:45:10;17.73;;;5.32;;
7829;SDS011;3960;51.86894000;5.39848000;2023-04-25T01:47:37;13.73;;;5.28;;
7829;SDS011;3960;51.86894000;5.39848000;2023-04-25T01:50:04;22.33;;;5.13;;
7829;SDS011;3960;51.86894000;5.39848000;2023-04-25T01:52:33;21.67;;;5.25;;
7829;SDS011;3960;51.86894000;5.39848000;2023-04-25T01:55:01;20.58;;;4.97;;
7829;SDS011;3960;51.86894000;5.39848000;2023-04-25T01:57:30;13.73;;;5.40;;
7829;SDS011;3960;51.86894000;5.39848000;2023-04-25T01:59:57;18.85;;;5.07;;
7829;SDS011;3960;51.86894000;5.39848000;2023-04-25T02:02:27;13.07;;;4.60;;
7829;SDS011;3960;51.86894000;5.39848000;2023-04-25T02:04:53;22.92;;;5.32;;
7829;SDS011;3960;51.86894000;5.39848000;2023-04-25T02:07:19;20.50;;;4.88;;
7829;SDS011;3960;51.86894000;5.39848000;2023-04-25T02:09:45;17.75;;;5.40;;
7829;SDS011;3960;51.86894000;5.39848000;2023-04-25T02:12:11;25.20;;;5.75;;
7829;SDS011;3960;51.86894000;5.39848000;2023-04-25T02:14:36;17.40;;;4.57;;
7829;SDS011;3960;51.86894000;5.39848000;2023-04-25T02:17:02;15.93;;;5.05;;
7829;SDS011;3960;51.86894000;5.39848000;2023-04-25T02:19:27;19.52;;;5.25;;
7829;SDS011;3960;51.86894000;5.39848000;2023-04-25T02:21:53;14.73;;;4.97;;
7829;SDS011;3960;51.86894000;5.39848000;2023-04-25T02:24:19;22.25;;;4.97;;
7829;SDS011;3960;51.86894000;5.39848000;2023-04-25T02:26:45;18.73;;;5.20;;
7829;SDS011;3960;51.86894000;5.39848000;2023-04-25T02:29:15;13.63;;;5.03;;
7829;SDS011;3960;51.86894000;5.39848000;2023-04-25T02:31:43;25.73;;;6.35;;
7829;SDS011;3960;51.86894000;5.39848000;2023-04-25T02:34:08;20.65;;;5.57;;
7829;SDS011;3960;51.86894000;5.39848000;2023-04-25T02:36:34;18.52;;;5.20;;
7829;SDS011;3960;51.86894000;5.39848000;2023-04-25T02:39:00;19.30;;;5.03;;
7829;SDS011;3960;51.86894000;5.39848000;2023-04-25T02:41:29;23.83;;;5.80;;
7829;SDS011;3960;51.86894000;5.39848000;2023-04-25T02:43:54;20.02;;;5.57;;
7829;SDS011;3960;51.86894000;5.39848000;2023-04-25T02:46:20;27.50;;;5.68;;
7829;SDS011;3960;51.86894000;5.39848000;2023-04-25T02:48:48;24.02;;;5.50;;
7829;SDS011;3960;51.86894000;5.39848000;2023-04-25T02:51:13;15.10;;;5.20;;
7829;SDS011;3960;51.86894000;5.39848000;2023-04-25T02:53:39;21.10;;;6.03;;
7829;SDS011;3960;51.86894000;5.39848000;2023-04-25T02:56:04;15.15;;;4.90;;
7829;SDS011;3960;51.86894000;5.39848000;2023-04-25T02:58:30;17.77;;;4.35;;
7829;SDS011;3960;51.86894000;5.39848000;2023-04-25T03:00:55;25.20;;;5.63;;
7829;SDS011;3960;51.86894000;5.39848000;2023-04-25T03:03:20;19.38;;;5.55;;
7829;SDS011;3960;51.86894000;5.39848000;2023-04-25T03:05:51;16.52;;;5.20;;
7829;SDS011;3960;51.86894000;5.39848000;2023-04-25T03:08:17;22.38;;;5.53;;
7829;SDS011;3960;51.86894000;5.39848000;2023-04-25T03:10:43;18.90;;;5.20;;
7829;SDS011;3960;51.86894000;5.39848000;2023-04-25T03:13:11;23.88;;;5.20;;
7829;SDS011;3960;51.86894000;5.39848000;2023-04-25T03:15:39;20.65;;;6.05;;
7829;SDS011;3960;51.86894000;5.39848000;2023-04-25T03:18:05;26.63;;;6.28;;
7829;SDS011;3960;51.86894000;5.39848000;2023-04-25T03:20:30;26.95;;;6.78;;
7829;SDS011;3960;51.86894000;5.39848000;2023-04-25T03:22:58;21.92;;;5.72;;
7829;SDS011;3960;51.86894000;5.39848000;2023-04-25T03:25:23;43.42;;;9.13;;
7829;SDS011;3960;51.86894000;5.39848000;2023-04-25T03:27:49;15.38;;;5.95;;
7829;SDS011;3960;51.86894000;5.39848000;2023-04-25T03:30:14;26.63;;;5.80;;
7829;SDS011;3960;51.86894000;5.39848000;2023-04-25T03:32:40;25.42;;;6.07;;
7829;SDS011;3960;51.86894000;5.39848000;2023-04-25T03:35:05;20.85;;;5.63;;
7829;SDS011;3960;51.86894000;5.39848000;2023-04-25T03:37:31;17.45;;;5.30;;
7829;SDS011;3960;51.86894000;5.39848000;2023-04-25T03:39:56;23.35;;;5.95;;
7829;SDS011;3960;51.86894000;5.39848000;2023-04-25T03:42:22;24.15;;;6.80;;
7829;SDS011;3960;51.86894000;5.39848000;2023-04-25T03:44:48;26.33;;;6.13;;
7829;SDS011;3960;51.86894000;5.39848000;2023-04-25T03:47:14;19.52;;;5.53;;
7829;SDS011;3960;51.86894000;5.39848000;2023-04-25T03:49:40;16.77;;;5.32;;
7829;SDS011;3960;51.86894000;5.39848000;2023-04-25T03:52:06;20.65;;;5.90;;
7829;SDS011;3960;51.86894000;5.39848000;2023-04-25T03:54:31;22.55;;;5.38;;
7829;SDS011;3960;51.86894000;5.39848000;2023-04-25T03:56:57;19.92;;;5.85;;
7829;SDS011;3960;51.86894000;5.39848000;2023-04-25T03:59:22;16.17;;;5.72;;
7829;SDS011;3960;51.86894000;5.39848000;2023-04-25T04:01:47;17.85;;;4.90;;
7829;SDS011;3960;51.86894000;5.39848000;2023-04-25T04:04:13;26.42;;;4.90;;
7829;SDS011;3960;51.86894000;5.39848000;2023-04-25T04:06:41;17.50;;;5.18;;
7829;SDS011;3960;51.86894000;5.39848000;2023-04-25T04:09:07;24.50;;;5.50;;
7829;SDS011;3960;51.86894000;5.39848000;2023-04-25T04:11:35;15.18;;;5.07;;
7829;SDS011;3960;51.86894000;5.39848000;2023-04-25T04:14:03;19.55;;;4.90;;
7829;SDS011;3960;51.86894000;5.39848000;2023-04-25T04:16:32;18.48;;;4.72;;
7829;SDS011;3960;51.86894000;5.39848000;2023-04-25T04:18:57;21.83;;;5.00;;
7829;SDS011;3960;51.86894000;5.39848000;2023-04-25T04:21:23;13.88;;;4.80;;
7829;SDS011;3960;51.86894000;5.39848000;2023-04-25T04:23:49;20.55;;;5.05;;
7829;SDS011;3960;51.86894000;5.39848000;2023-04-25T04:26:14;17.58;;;4.70;;
7829;SDS011;3960;51.86894000;5.39848000;2023-04-25T04:28:43;18.23;;;5.50;;
7829;SDS011;3960;51.86894000;5.39848000;2023-04-25T04:31:09;19.10;;;5.65;;
7829;SDS011;3960;51.86894000;5.39848000;2023-04-25T04:33:35;23.70;;;4.50;;
7829;SDS011;3960;51.86894000;5.39848000;2023-04-25T04:36:04;11.73;;;4.30;;
7829;SDS011;3960;51.86894000;5.39848000;2023-04-25T04:38:32;14.80;;;4.32;;
7829;SDS011;3960;51.86894000;5.39848000;2023-04-25T04:40:58;9.75;;;4.10;;
7829;SDS011;3960;51.86894000;5.39848000;2023-04-25T04:43:23;15.45;;;4.97;;
7829;SDS011;3960;51.86894000;5.39848000;2023-04-25T04:45:49;15.65;;;4.90;;
7829;SDS011;3960;51.86894000;5.39848000;2023-04-25T04:48:15;12.23;;;4.47;;
7829;SDS011;3960;51.86894000;5.39848000;2023-04-25T04:50:42;9.00;;;4.22;;
7829;SDS011;3960;51.86894000;5.39848000;2023-04-25T04:53:10;17.50;;;4.68;;
7829;SDS011;3960;51.86894000;5.39848000;2023-04-25T04:55:36;15.73;;;4.25;;
7829;SDS011;3960;51.86894000;5.39848000;2023-04-25T04:58:01;10.38;;;3.97;;
7829;SDS011;3960;51.86894000;5.39848000;2023-04-25T05:00:27;12.18;;;4.20;;
7829;SDS011;3960;51.86894000;5.39848000;2023-04-25T05:02:54;19.27;;;5.45;;
7829;SDS011;3960;51.86894000;5.39848000;2023-04-25T05:05:26;12.60;;;3.83;;
7829;SDS011;3960;51.86894000;5.39848000;2023-04-25T05:07:52;15.00;;;3.90;;
7829;SDS011;3960;51.86894000;5.39848000;2023-04-25T05:10:18;16.85;;;4.78;;
7829;SDS011;3960;51.86894000;5.39848000;2023-04-25T05:12:46;9.73;;;3.60;;
7829;SDS011;3960;51.86894000;5.39848000;2023-04-25T05:15:14;6.72;;;3.40;;
7829;SDS011;3960;51.86894000;5.39848000;2023-04-25T05:17:39;9.60;;;4.72;;
7829;SDS011;3960;51.86894000;5.39848000;2023-04-25T05:20:05;12.45;;;3.78;;
7829;SDS011;3960;51.86894000;5.39848000;2023-04-25T05:22:32;11.75;;;4.32;;
7829;SDS011;3960;51.86894000;5.39848000;2023-04-25T05:25:01;14.05;;;3.67;;
7829;SDS011;3960;51.86894000;5.39848000;2023-04-25T05:27:28;12.52;;;3.45;;
7829;SDS011;3960;51.86894000;5.39848000;2023-04-25T05:29:54;10.40;;;2.80;;
7829;SDS011;3960;51.86894000;5.39848000;2023-04-25T05:32:19;11.85;;;3.75;;
7829;SDS011;3960;51.86894000;5.39848000;2023-04-25T05:34:45;7.05;;;2.60;;
7829;SDS011;3960;51.86894000;5.39848000;2023-04-25T05:37:10;7.07;;;2.97;;
7829;SDS011;3960;51.86894000;5.39848000;2023-04-25T05:39:35;7.38;;;2.63;;
7829;SDS011;3960;51.86894000;5.39848000;2023-04-25T05:42:01;9.38;;;2.70;;
7829;SDS011;3960;51.86894000;5.39848000;2023-04-25T05:44:27;10.25;;;2.40;;
7829;SDS011;3960;51.86894000;5.39848000;2023-04-25T05:46:53;9.07;;;3.85;;
7829;SDS011;3960;51.86894000;5.39848000;2023-04-25T05:49:19;11.15;;;3.08;;
7829;SDS011;3960;51.86894000;5.39848000;2023-04-25T05:51:44;8.68;;;2.92;;
7829;SDS011;3960;51.86894000;5.39848000;2023-04-25T05:54:12;11.93;;;2.88;;
7829;SDS011;3960;51.86894000;5.39848000;2023-04-25T05:56:50;12.68;;;3.33;;
7829;SDS011;3960;51.86894000;5.39848000;2023-04-25T05:59:18;11.27;;;3.30;;
7829;SDS011;3960;51.86894000;5.39848000;2023-04-25T06:01:44;10.45;;;3.10;;
7829;SDS011;3960;51.86894000;5.39848000;2023-04-25T06:04:09;11.02;;;2.90;;
7829;SDS011;3960;51.86894000;5.39848000;2023-04-25T06:06:34;10.88;;;2.80;;
7829;SDS011;3960;51.86894000;5.39848000;2023-04-25T06:09:00;11.50;;;2.90;;
7829;SDS011;3960;51.86894000;5.39848000;2023-04-25T06:11:25;8.43;;;2.50;;
7829;SDS011;3960;51.86894000;5.39848000;2023-04-25T06:13:53;8.35;;;2.83;;
7829;SDS011;3960;51.86894000;5.39848000;2023-04-25T06:16:19;9.32;;;3.00;;
7829;SDS011;3960;51.86894000;5.39848000;2023-04-25T06:18:44;5.45;;;2.40;;
7829;SDS011;3960;51.86894000;5.39848000;2023-04-25T06:21:10;10.90;;;3.00;;
7829;SDS011;3960;51.86894000;5.39848000;2023-04-25T06:23:35;6.47;;;2.60;;
7829;SDS011;3960;51.86894000;5.39848000;2023-04-25T06:26:04;9.18;;;2.45;;
7829;SDS011;3960;51.86894000;5.39848000;2023-04-25T06:28:29;10.63;;;2.58;;
7829;SDS011;3960;51.86894000;5.39848000;2023-04-25T06:30:55;11.88;;;2.65;;
7829;SDS011;3960;51.86894000;5.39848000;2023-04-25T06:33:20;9.35;;;2.00;;
7829;SDS011;3960;51.86894000;5.39848000;2023-04-25T06:35:46;6.70;;;2.10;;
7829;SDS011;3960;51.86894000;5.39848000;2023-04-25T06:38:11;8.68;;;2.20;;
7829;SDS011;3960;51.86894000;5.39848000;2023-04-25T06:40:40;9.70;;;1.98;;
7829;SDS011;3960;51.86894000;5.39848000;2023-04-25T06:43:05;7.70;;;1.90;;
7829;SDS011;3960;51.86894000;5.39848000;2023-04-25T06:45:31;9.35;;;2.25;;
7829;SDS011;3960;51.86894000;5.39848000;2023-04-25T06:47:56;4.47;;;1.70;;
7829;SDS011;3960;51.86894000;5.39848000;2023-04-25T06:50:22;11.10;;;2.17;;
7829;SDS011;3960;51.86894000;5.39848000;2023-04-25T06:52:47;8.40;;;2.08;;
7829;SDS011;3960;51.86894000;5.39848000;2023-04-25T06:55:15;7.93;;;2.38;;
7829;SDS011;3960;51.86894000;5.39848000;2023-04-25T06:57:41;7.22;;;2.67;;
7829;SDS011;3960;51.86894000;5.39848000;2023-04-25T07:00:07;6.68;;;2.03;;
7829;SDS011;3960;51.86894000;5.39848000;2023-04-25T07:02:36;12.38;;;2.20;;
7829;SDS011;3960;51.86894000;5.39848000;2023-04-25T07:05:02;5.75;;;1.48;;
7829;SDS011;3960;51.86894000;5.39848000;2023-04-25T07:07:29;14.35;;;4.18;;
7829;SDS011;3960;51.86894000;5.39848000;2023-04-25T07:09:55;14.60;;;1.90;;
7829;SDS011;3960;51.86894000;5.39848000;2023-04-25T07:12:21;7.53;;;1.98;;
7829;SDS011;3960;51.86894000;5.39848000;2023-04-25T07:15:16;8.20;;;1.85;;
7829;SDS011;3960;51.86894000;5.39848000;2023-04-25T07:17:50;8.60;;;2.42;;
7829;SDS011;3960;51.86894000;5.39848000;2023-04-25T07:20:21;11.47;;;2.53;;
7829;SDS011;3960;51.86894000;5.39848000;2023-04-25T07:22:55;7.93;;;1.80;;
7829;SDS011;3960;51.86894000;5.39848000;2023-04-25T07:25:27;9.45;;;1.98;;
7829;SDS011;3960;51.86894000;5.39848000;2023-04-25T07:28:16;7.90;;;1.80;;
7829;SDS011;3960;51.86894000;5.39848000;2023-04-25T07:31:10;6.07;;;1.60;;
7829;SDS011;3960;51.86894000;5.39848000;2023-04-25T07:33:36;8.23;;;2.22;;
7829;SDS011;3960;51.86894000;5.39848000;2023-04-25T07:36:01;9.63;;;2.60;;
7829;SDS011;3960;51.86894000;5.39848000;2023-04-25T07:38:27;9.68;;;1.75;;
7829;SDS011;3960;51.86894000;5.39848000;2023-04-25T07:40:52;6.38;;;2.00;;
7829;SDS011;3960;51.86894000;5.39848000;2023-04-25T07:43:18;9.02;;;2.20;;
7829;SDS011;3960;51.86894000;5.39848000;2023-04-25T07:45:43;11.43;;;2.05;;
7829;SDS011;3960;51.86894000;5.39848000;2023-04-25T07:48:09;8.63;;;2.10;;
7829;SDS011;3960;51.86894000;5.39848000;2023-04-25T07:50:35;7.90;;;2.65;;
7829;SDS011;3960;51.86894000;5.39848000;2023-04-25T07:53:00;8.00;;;1.73;;
7829;SDS011;3960;51.86894000;5.39848000;2023-04-25T07:55:25;11.57;;;2.08;;
7829;SDS011;3960;51.86894000;5.39848000;2023-04-25T07:57:51;6.00;;;1.88;;
7829;SDS011;3960;51.86894000;5.39848000;2023-04-25T08:00:16;8.27;;;2.25;;
7829;SDS011;3960;51.86894000;5.39848000;2023-04-25T08:02:42;8.07;;;2.05;;
7829;SDS011;3960;51.86894000;5.39848000;2023-04-25T08:05:07;12.57;;;1.38;;
7829;SDS011;3960;51.86894000;5.39848000;2023-04-25T08:07:36;12.90;;;2.28;;
7829;SDS011;3960;51.86894000;5.39848000;2023-04-25T08:10:01;5.95;;;1.50;;
7829;SDS011;3960;51.86894000;5.39848000;2023-04-25T08:12:27;11.98;;;2.53;;
7829;SDS011;3960;51.86894000;5.39848000;2023-04-25T08:14:53;9.25;;;1.90;;
7829;SDS011;3960;51.86894000;5.39848000;2023-04-25T08:17:18;8.82;;;2.55;;
7829;SDS011;3960;51.86894000;5.39848000;2023-04-25T08:19:43;10.70;;;2.33;;
7829;SDS011;3960;51.86894000;5.39848000;2023-04-25T08:22:08;9.18;;;2.20;;
7829;SDS011;3960;51.86894000;5.39848000;2023-04-25T08:24:34;9.63;;;2.38;;
7829;SDS011;3960;51.86894000;5.39848000;2023-04-25T08:26:59;9.63;;;1.80;;
7829;SDS011;3960;51.86894000;5.39848000;2023-04-25T08:29:24;7.72;;;1.52;;
7829;SDS011;3960;51.86894000;5.39848000;2023-04-25T08:31:50;6.95;;;1.77;;
7829;SDS011;3960;51.86894000;5.39848000;2023-04-25T08:34:17;3.95;;;1.17;;
7829;SDS011;3960;51.86894000;5.39848000;2023-04-25T08:36:43;7.57;;;1.30;;
7829;SDS011;3960;51.86894000;5.39848000;2023-04-25T08:39:08;2.88;;;1.17;;
7829;SDS011;3960;51.86894000;5.39848000;2023-04-25T08:41:34;2.88;;;1.10;;
7829;SDS011;3960;51.86894000;5.39848000;2023-04-25T08:44:01;2.53;;;0.90;;
7829;SDS011;3960;51.86894000;5.39848000;2023-04-25T08:46:28;6.00;;;1.42;;
7829;SDS011;3960;51.86894000;5.39848000;2023-04-25T08:48:54;6.97;;;1.38;;
7829;SDS011;3960;51.86894000;5.39848000;2023-04-25T08:51:25;8.50;;;1.98;;
7829;SDS011;3960;51.86894000;5.39848000;2023-04-25T08:53:52;4.38;;;1.33;;
7829;SDS011;3960;51.86894000;5.39848000;2023-04-25T08:56:19;6.05;;;1.58;;
7829;SDS011;3960;51.86894000;5.39848000;2023-04-25T08:58:48;5.22;;;1.67;;
7829;SDS011;3960;51.86894000;5.39848000;2023-04-25T09:01:15;4.13;;;1.38;;
7829;SDS011;3960;51.86894000;5.39848000;2023-04-25T09:03:40;5.00;;;1.55;;
7829;SDS011;3960;51.86894000;5.39848000;2023-04-25T09:06:06;5.47;;;1.60;;
7829;SDS011;3960;51.86894000;5.39848000;2023-04-25T09:08:33;4.95;;;1.60;;
7829;SDS011;3960;51.86894000;5.39848000;2023-04-25T09:10:58;4.15;;;1.38;;
7829;SDS011;3960;51.86894000;5.39848000;2023-04-25T09:13:24;7.68;;;1.48;;
7829;SDS011;3960;51.86894000;5.39848000;2023-04-25T09:15:52;6.78;;;1.27;;
7829;SDS011;3960;51.86894000;5.39848000;2023-04-25T09:18:25;6.35;;;1.40;;
7829;SDS011;3960;51.86894000;5.39848000;2023-04-25T09:20:53;4.63;;;1.88;;
7829;SDS011;3960;51.86894000;5.39848000;2023-04-25T09:23:44;6.05;;;1.50;;
7829;SDS011;3960;51.86894000;5.39848000;2023-04-25T09:26:13;5.15;;;1.40;;
7829;SDS011;3960;51.86894000;5.39848000;2023-04-25T09:28:41;9.32;;;2.00;;
7829;SDS011;3960;51.86894000;5.39848000;2023-04-25T09:31:09;7.78;;;1.52;;
7829;SDS011;3960;51.86894000;5.39848000;2023-04-25T09:33:35;8.25;;;1.60;;
7829;SDS011;3960;51.86894000;5.39848000;2023-04-25T09:36:02;4.47;;;1.67;;
7829;SDS011;3960;51.86894000;5.39848000;2023-04-25T09:38:28;6.38;;;1.38;;
7829;SDS011;3960;51.86894000;5.39848000;2023-04-25T09:40:55;8.50;;;1.92;;
7829;SDS011;3960;51.86894000;5.39848000;2023-04-25T09:43:24;5.43;;;1.90;;
7829;SDS011;3960;51.86894000;5.39848000;2023-04-25T09:45:50;5.72;;;1.70;;
7829;SDS011;3960;51.86894000;5.39848000;2023-04-25T09:48:18;9.98;;;1.77;;
7829;SDS011;3960;51.86894000;5.39848000;2023-04-25T09:51:03;7.68;;;1.52;;
7829;SDS011;3960;51.86894000;5.39848000;2023-04-25T09:53:30;7.30;;;1.38;;
7829;SDS011;3960;51.86894000;5.39848000;2023-04-25T09:55:57;7.15;;;1.90;;
7829;SDS011;3960;51.86894000;5.39848000;2023-04-25T09:58:25;6.32;;;1.60;;
7829;SDS011;3960;51.86894000;5.39848000;2023-04-25T10:00:52;3.45;;;1.35;;
7829;SDS011;3960;51.86894000;5.39848000;2023-04-25T10:03:22;5.38;;;1.40;;
7829;SDS011;3960;51.86894000;5.39848000;2023-04-25T10:05:50;7.88;;;1.60;;
7829;SDS011;3960;51.86894000;5.39848000;2023-04-25T10:08:17;4.88;;;1.48;;
7829;SDS011;3960;51.86894000;5.39848000;2023-04-25T10:10:43;7.40;;;1.60;;
7829;SDS011;3960;51.86894000;5.39848000;2023-04-25T10:13:09;10.75;;;1.67;;
7829;SDS011;3960;51.86894000;5.39848000;2023-04-25T10:15:36;8.13;;;1.58;;
7829;SDS011;3960;51.86894000;5.39848000;2023-04-25T10:18:02;6.70;;;1.63;;
7829;SDS011;3960;51.86894000;5.39848000;2023-04-25T10:20:28;5.50;;;1.70;;
7829;SDS011;3960;51.86894000;5.39848000;2023-04-25T10:22:55;5.18;;;1.20;;
7829;SDS011;3960;51.86894000;5.39848000;2023-04-25T10:25:37;8.35;;;1.60;;
7829;SDS011;3960;51.86894000;5.39848000;2023-04-25T10:28:05;4.70;;;1.33;;
7829;SDS011;3960;51.86894000;5.39848000;2023-04-25T10:30:30;6.90;;;1.38;;
7829;SDS011;3960;51.86894000;5.39848000;2023-04-25T10:32:56;7.40;;;1.45;;
7829;SDS011;3960;51.86894000;5.39848000;2023-04-25T10:35:27;3.97;;;0.90;;
7829;SDS011;3960;51.86894000;5.39848000;2023-04-25T10:38:03;6.78;;;1.70;;
7829;SDS011;3960;51.86894000;5.39848000;2023-04-25T10:40:30;6.03;;;1.45;;
7829;SDS011;3960;51.86894000;5.39848000;2023-04-25T10:43:33;5.80;;;1.58;;
7829;SDS011;3960;51.86894000;5.39848000;2023-04-25T10:46:02;10.82;;;1.70;;
7829;SDS011;3960;51.86894000;5.39848000;2023-04-25T10:48:37;5.25;;;1.40;;
7829;SDS011;3960;51.86894000;5.39848000;2023-04-25T10:51:10;7.45;;;1.65;;
7829;SDS011;3960;51.86894000;5.39848000;2023-04-25T10:53:44;5.68;;;1.90;;
7829;SDS011;3960;51.86894000;5.39848000;2023-04-25T10:59:01;8.07;;;1.50;;
7829;SDS011;3960;51.86894000;5.39848000;2023-04-25T11:01:28;5.15;;;1.45;;
7829;SDS011;3960;51.86894000;5.39848000;2023-04-25T11:04:01;6.90;;;1.67;;
7829;SDS011;3960;51.86894000;5.39848000;2023-04-25T11:06:29;6.72;;;2.50;;
7829;SDS011;3960;51.86894000;5.39848000;2023-04-25T11:09:02;4.45;;;1.10;;
7829;SDS011;3960;51.86894000;5.39848000;2023-04-25T11:11:33;6.35;;;1.35;;
7829;SDS011;3960;51.86894000;5.39848000;2023-04-25T11:14:01;5.18;;;1.05;;
7829;SDS011;3960;51.86894000;5.39848000;2023-04-25T11:16:27;2.95;;;1.02;;
7829;SDS011;3960;51.86894000;5.39848000;2023-04-25T11:18:52;4.65;;;0.98;;
7829;SDS011;3960;51.86894000;5.39848000;2023-04-25T11:21:17;4.07;;;0.98;;
7829;SDS011;3960;51.86894000;5.39848000;2023-04-25T11:23:44;3.25;;;0.95;;
7829;SDS011;3960;51.86894000;5.39848000;2023-04-25T11:26:11;2.80;;;1.00;;
7829;SDS011;3960;51.86894000;5.39848000;2023-04-25T11:28:36;4.72;;;1.30;;
7829;SDS011;3960;51.86894000;5.39848000;2023-04-25T11:31:02;3.00;;;1.25;;
7829;SDS011;3960;51.86894000;5.39848000;2023-04-25T11:33:29;4.05;;;1.23;;
7829;SDS011;3960;51.86894000;5.39848000;2023-04-25T11:35:54;4.95;;;1.25;;
7829;SDS011;3960;51.86894000;5.39848000;2023-04-25T11:38:21;3.03;;;1.70;;
7829;SDS011;3960;51.86894000;5.39848000;2023-04-25T11:40:51;3.67;;;1.27;;
7829;SDS011;3960;51.86894000;5.39848000;2023-04-25T11:43:17;4.15;;;1.40;;
7829;SDS011;3960;51.86894000;5.39848000;2023-04-25T11:45:48;4.07;;;1.20;;
7829;SDS011;3960;51.86894000;5.39848000;2023-04-25T11:48:15;3.40;;;1.00;;
7829;SDS011;3960;51.86894000;5.39848000;2023-04-25T11:50:41;4.13;;;1.40;;
7829;SDS011;3960;51.86894000;5.39848000;2023-04-25T11:53:06;3.35;;;1.08;;
7829;SDS011;3960;51.86894000;5.39848000;2023-04-25T11:55:32;5.22;;;1.63;;
7829;SDS011;3960;51.86894000;5.39848000;2023-04-25T11:57:59;5.47;;;1.40;;
7829;SDS011;3960;51.86894000;5.39848000;2023-04-25T12:00:25;7.03;;;1.73;;
7829;SDS011;3960;51.86894000;5.39848000;2023-04-25T12:02:52;6.70;;;1.73;;
7829;SDS011;3960;51.86894000;5.39848000;2023-04-25T12:05:18;4.28;;;1.40;;
7829;SDS011;3960;51.86894000;5.39848000;2023-04-25T12:07:45;3.80;;;1.38;;
7829;SDS011;3960;51.86894000;5.39848000;2023-04-25T12:10:11;5.88;;;1.50;;
7829;SDS011;3960;51.86894000;5.39848000;2023-04-25T12:12:38;5.13;;;1.35;;
7829;SDS011;3960;51.86894000;5.39848000;2023-04-25T12:15:13;6.38;;;1.50;;
7829;SDS011;3960;51.86894000;5.39848000;2023-04-25T12:17:40;4.95;;;1.38;;
7829;SDS011;3960;51.86894000;5.39848000;2023-04-25T12:20:10;4.95;;;1.30;;
7829;SDS011;3960;51.86894000;5.39848000;2023-04-25T12:22:37;8.40;;;2.17;;
7829;SDS011;3960;51.86894000;5.39848000;2023-04-25T12:25:09;4.75;;;1.70;;
7829;SDS011;3960;51.86894000;5.39848000;2023-04-25T12:27:39;7.78;;;1.67;;
7829;SDS011;3960;51.86894000;5.39848000;2023-04-25T12:30:09;6.32;;;1.63;;
7829;SDS011;3960;51.86894000;5.39848000;2023-04-25T12:32:35;6.47;;;1.40;;
7829;SDS011;3960;51.86894000;5.39848000;2023-04-25T12:35:01;2.60;;;1.27;;
7829;SDS011;3960;51.86894000;5.39848000;2023-04-25T12:37:28;5.10;;;1.40;;
7829;SDS011;3960;51.86894000;5.39848000;2023-04-25T12:39:53;5.38;;;1.27;;
7829;SDS011;3960;51.86894000;5.39848000;2023-04-25T12:42:18;2.05;;;0.95;;
7829;SDS011;3960;51.86894000;5.39848000;2023-04-25T12:44:44;5.32;;;1.50;;
7829;SDS011;3960;51.86894000;5.39848000;2023-04-25T12:47:09;4.40;;;1.38;;
7829;SDS011;3960;51.86894000;5.39848000;2023-04-25T12:49:35;5.97;;;1.25;;
7829;SDS011;3960;51.86894000;5.39848000;2023-04-25T12:52:00;5.05;;;1.52;;
7829;SDS011;3960;51.86894000;5.39848000;2023-04-25T12:54:25;5.35;;;1.10;;
7829;SDS011;3960;51.86894000;5.39848000;2023-04-25T12:56:51;8.38;;;1.30;;
7829;SDS011;3960;51.86894000;5.39848000;2023-04-25T12:59:17;3.70;;;1.35;;
7829;SDS011;3960;51.86894000;5.39848000;2023-04-25T13:01:42;4.32;;;1.27;;
7829;SDS011;3960;51.86894000;5.39848000;2023-04-25T13:04:09;4.20;;;1.33;;
7829;SDS011;3960;51.86894000;5.39848000;2023-04-25T13:06:34;3.45;;;1.25;;
7829;SDS011;3960;51.86894000;5.39848000;2023-04-25T13:08:59;4.63;;;1.58;;
7829;SDS011;3960;51.86894000;5.39848000;2023-04-25T13:11:25;6.88;;;1.20;;